Time;durP1;ratioP1;P1;durP2;ratioP2;P2;SDS_P1;SDS_P2;PMS_P1;PMS_P2;Temp;Humidity;BMP_temperature;BMP_pressure;BME280_temperature;BME280_humidity;BME280_pressure;Samples;Min_cycle;Max_cycle;Signal;HPM_P1;HPM_P2
2022/11/14 00:01:11;;;;;;;73.43;23.27;;;4.30;99.90;;;3.49;100.00;97386.06;4965203;28;20074;-72
2022/11/14 00:03:39;;;;;;;332.42;35.92;;;4.40;99.90;;;3.24;100.00;97388.22;4958358;28;20456;-72
2022/11/14 00:06:06;;;;;;;252.10;30.60;;;4.50;99.90;;;3.27;100.00;97380.44;4962798;28;20356;-71
2022/11/14 00:08:34;;;;;;;395.10;43.08;;;4.50;99.90;;;3.33;100.00;97377.78;4978365;28;20126;-71
2022/11/14 00:11:02;;;;;;;301.73;33.45;;;4.50;99.90;;;3.32;100.00;97372.69;4968002;28;20058;-70
2022/11/14 00:13:29;;;;;;;122.55;25.85;;;4.50;99.90;;;3.47;100.00;97366.44;4966678;28;20047;-72
2022/11/14 00:15:55;;;;;;;273.10;35.88;;;4.50;99.90;;;3.55;100.00;97365.41;4964788;28;20051;-72
2022/11/14 00:18:23;;;;;;;48.90;21.85;;;4.60;99.90;;;3.75;100.00;97359.91;4968145;28;20050;-69
2022/11/14 00:20:52;;;;;;;97.43;24.00;;;4.70;99.90;;;3.74;100.00;97357.38;4981540;28;20047;-69
2022/11/14 00:23:20;;;;;;;175.70;28.00;;;4.70;99.90;;;3.61;100.00;97363.63;4967085;28;20193;-72
2022/11/14 00:25:47;;;;;;;208.38;31.98;;;4.80;99.90;;;3.66;100.00;97366.94;4966057;28;20404;-72
2022/11/14 00:28:14;;;;;;;138.48;28.13;;;4.80;99.90;;;3.68;100.00;97370.34;4966667;28;20046;-72
2022/11/14 00:30:45;;;;;;;75.05;25.98;;;4.80;99.90;;;3.88;100.00;97362.28;4963967;28;20046;-71
2022/11/14 00:33:12;;;;;;;65.90;23.35;;;4.80;99.90;;;3.94;100.00;97355.25;4967171;28;20054;-71
2022/11/14 00:35:55;;;;;;;142.10;29.45;;;4.90;99.90;;;3.81;100.00;97363.22;4964089;28;20097;-71
2022/11/14 00:38:23;;;;;;;63.83;23.48;;;4.90;99.90;;;3.93;100.00;97357.88;4967589;28;20535;-71
2022/11/14 00:40:49;;;;;;;70.00;23.92;;;5.00;99.90;;;4.01;100.00;97348.28;4964962;28;20450;-71
2022/11/14 00:43:16;;;;;;;67.72;23.17;;;4.90;99.90;;;4.08;100.00;97352.44;4964662;28;20176;-72
2022/11/14 00:45:44;;;;;;;176.88;29.98;;;5.00;99.90;;;4.00;100.00;97356.88;4965733;28;20429;-71
2022/11/14 00:48:12;;;;;;;281.90;38.63;;;5.00;99.90;;;3.87;100.00;97355.44;4978977;28;20055;-73
2022/11/14 00:50:39;;;;;;;61.15;24.38;;;5.00;99.90;;;4.01;100.00;97344.88;4967782;28;20053;-70
2022/11/14 00:53:06;;;;;;;82.60;22.95;;;5.00;99.90;;;4.08;100.00;97342.19;4964173;28;20055;-72
2022/11/14 00:55:33;;;;;;;75.93;23.67;;;5.10;99.90;;;4.13;100.00;97339.50;4964775;28;20413;-70
2022/11/14 00:58:00;;;;;;;52.40;22.92;;;5.10;99.90;;;4.08;100.00;97336.16;4966553;28;20086;-70
2022/11/14 01:00:27;;;;;;;78.95;25.27;;;5.00;99.90;;;4.11;100.00;97336.97;4963516;28;20126;-72
2022/11/14 01:02:55;;;;;;;177.40;30.95;;;5.00;99.90;;;3.92;100.00;97331.38;4965598;28;20394;-71
2022/11/14 01:05:24;;;;;;;234.10;33.70;;;5.00;99.90;;;3.92;100.00;97330.50;4968011;28;20125;-72
2022/11/14 01:07:50;;;;;;;88.93;27.00;;;4.90;99.90;;;3.90;100.00;97325.41;4963907;28;20055;-71
2022/11/14 01:10:18;;;;;;;166.00;28.88;;;4.90;99.90;;;3.84;100.00;97314.41;4966102;28;20057;-71
2022/11/14 01:12:45;;;;;;;148.35;30.58;;;4.90;99.90;;;3.90;100.00;97310.00;4964934;28;20047;-71
2022/11/14 01:15:12;;;;;;;56.17;23.67;;;4.90;99.90;;;3.95;100.00;97312.47;4962872;28;20058;-72
2022/11/14 01:17:39;;;;;;;67.68;24.90;;;4.90;99.90;;;3.93;100.00;97311.66;4967144;28;20054;-71
2022/11/14 01:20:07;;;;;;;57.95;23.17;;;5.00;99.90;;;4.09;100.00;97315.59;4964368;28;20239;-72
2022/11/14 01:22:34;;;;;;;89.22;27.27;;;5.00;99.90;;;4.08;100.00;97310.47;4964758;28;20051;-71
2022/11/14 01:25:00;;;;;;;58.08;24.13;;;5.00;99.90;;;4.09;100.00;97317.31;4966832;28;20059;-72
2022/11/14 01:27:30;;;;;;;96.05;25.40;;;5.00;99.90;;;4.05;100.00;97308.00;4965282;28;20051;-72
2022/11/14 01:29:57;;;;;;;53.28;23.02;;;5.00;99.90;;;3.87;100.00;97306.63;4964903;28;20057;-71
2022/11/14 01:32:25;;;;;;;224.88;32.85;;;5.00;99.90;;;3.69;100.00;97313.81;4963730;28;20055;-72
2022/11/14 01:34:52;;;;;;;117.50;27.02;;;4.90;99.90;;;3.74;100.00;97317.16;4963096;28;20054;-71
2022/11/14 01:37:19;;;;;;;329.65;38.70;;;4.90;99.90;;;3.57;100.00;97316.63;4978308;28;20050;-71
2022/11/14 01:39:46;;;;;;;293.00;36.35;;;4.90;99.90;;;3.54;100.00;97314.97;4967196;28;20046;-72
2022/11/14 01:42:13;;;;;;;266.55;33.10;;;4.90;99.90;;;3.61;100.00;97318.28;4967279;28;20050;-71
2022/11/14 01:44:48;;;;;;;366.00;42.67;;;4.90;99.90;;;3.64;100.00;97320.78;4969137;28;20374;-72
2022/11/14 01:47:24;;;;;;;284.17;37.38;;;4.90;99.90;;;3.61;100.00;97317.44;4966242;28;20051;-72
2022/11/14 01:49:57;;;;;;;246.70;33.88;;;4.90;99.90;;;3.51;100.00;97311.59;4976566;28;20050;-72
2022/11/14 01:52:34;;;;;;;197.43;32.20;;;4.90;99.90;;;3.67;100.00;97299.31;4964699;28;20069;-71
2022/11/14 01:55:06;;;;;;;393.98;41.42;;;4.90;99.90;;;3.71;100.00;97291.53;4977725;28;20057;-71
2022/11/14 01:57:41;;;;;;;89.03;26.77;;;4.90;99.90;;;3.88;100.00;97290.38;4968913;28;20057;-70
2022/11/14 02:00:11;;;;;;;121.78;28.00;;;5.00;99.90;;;4.01;100.00;97285.81;4966135;28;20059;-70
2022/11/14 02:02:38;;;;;;;104.05;25.98;;;5.00;99.90;;;4.02;100.00;97282.38;4967760;28;20046;-71
2022/11/14 02:05:09;;;;;;;94.65;28.23;;;5.00;99.90;;;4.02;100.00;97277.25;4965844;28;20046;-71
2022/11/14 02:07:39;;;;;;;84.25;26.83;;;5.10;99.90;;;4.02;100.00;97280.66;4966597;28;20068;-72
2022/11/14 02:10:17;;;;;;;89.78;27.13;;;5.00;99.90;;;4.03;100.00;97274.63;4965976;28;20065;-72
2022/11/14 02:12:45;;;;;;;94.07;28.52;;;5.00;99.90;;;4.06;100.00;97274.56;4981497;28;20063;-72
2022/11/14 02:15:13;;;;;;;165.50;29.88;;;5.00;99.90;;;3.92;100.00;97263.72;4967439;28;20234;-72
2022/11/14 02:17:41;;;;;;;95.50;28.52;;;5.00;99.90;;;4.07;100.00;97260.84;4982664;28;20631;-69
2022/11/14 02:20:09;;;;;;;129.90;30.55;;;5.00;99.90;;;4.08;100.00;97262.56;4965318;28;20050;-72
2022/11/14 02:22:38;;;;;;;67.20;28.55;;;5.00;99.90;;;4.13;100.00;97262.44;4968109;28;20051;-72
2022/11/14 02:25:06;;;;;;;77.57;28.23;;;5.00;99.90;;;4.11;100.00;97259.06;4964838;28;20066;-72
2022/11/14 02:27:35;;;;;;;87.75;28.63;;;5.00;99.90;;;4.14;100.00;97251.28;4965102;28;20061;-70
2022/11/14 02:30:13;;;;;;;95.95;26.67;;;5.10;99.90;;;4.18;100.00;97242.63;4966240;28;20556;-70
2022/11/14 02:32:40;;;;;;;87.00;29.08;;;5.10;99.90;;;4.19;100.00;97234.88;4967312;28;20557;-72
2022/11/14 02:35:27;;;;;;;57.53;27.90;;;5.10;99.90;;;4.21;100.00;97222.00;4967642;28;20106;-72
2022/11/14 02:37:54;;;;;;;52.67;26.33;;;5.20;99.90;;;4.30;100.00;97226.09;4979185;28;20054;-71
2022/11/14 02:40:21;;;;;;;215.85;38.45;;;5.20;99.90;;;4.00;100.00;97210.50;4967698;28;20062;-72
2022/11/14 02:42:48;;;;;;;75.43;28.05;;;5.20;99.90;;;3.84;100.00;97207.41;4962001;28;20085;-71
2022/11/14 02:45:14;;;;;;;53.80;25.02;;;5.10;99.90;;;4.01;100.00;97208.75;4979267;28;20511;-70
2022/11/14 02:47:41;;;;;;;60.17;25.20;;;5.00;99.90;;;3.98;100.00;97201.97;4966807;28;20043;-72
2022/11/14 02:50:09;;;;;;;101.07;31.13;;;5.10;99.90;;;3.95;100.00;97202.91;4965986;28;20073;-72
2022/11/14 02:52:36;;;;;;;63.53;28.20;;;5.00;99.90;;;4.12;100.00;97191.38;4981325;28;20050;-72
2022/11/14 02:55:04;;;;;;;71.45;29.13;;;5.10;99.90;;;4.11;100.00;97192.28;4966992;28;20145;-71
2022/11/14 02:57:31;;;;;;;43.33;24.40;;;5.00;99.90;;;4.23;100.00;97189.41;4981112;28;20047;-71
2022/11/14 02:59:58;;;;;;;48.97;23.65;;;5.10;99.90;;;4.36;100.00;97189.97;4965373;28;20046;-71
2022/11/14 03:02:25;;;;;;;54.08;25.08;;;5.20;99.90;;;4.24;100.00;97174.84;4968034;28;20062;-71
2022/11/14 03:04:52;;;;;;;50.13;24.33;;;5.30;99.90;;;4.44;100.00;97176.94;4966469;28;20065;-72
2022/11/14 03:07:19;;;;;;;43.03;23.70;;;5.40;99.90;;;4.50;100.00;97169.91;4967322;28;20054;-71
2022/11/14 03:09:46;;;;;;;47.53;22.23;;;5.40;99.90;;;4.55;100.00;97165.50;4971705;28;20086;-72
2022/11/14 03:12:18;;;;;;;35.63;19.27;;;5.40;99.90;;;4.65;100.00;97166.09;4970118;28;20425;-71
2022/11/14 03:14:45;;;;;;;43.85;22.90;;;5.50;99.90;;;4.74;100.00;97145.28;4969190;28;20070;-71
2022/11/14 03:17:12;;;;;;;40.75;21.02;;;5.60;99.90;;;4.75;100.00;97144.44;4972334;28;20061;-72
2022/11/14 03:19:39;;;;;;;43.10;21.40;;;5.70;99.90;;;4.78;100.00;97138.38;4968726;28;20055;-70
2022/11/14 03:22:06;;;;;;;45.20;20.88;;;5.70;99.90;;;4.79;100.00;97132.34;4969414;28;20413;-71
2022/11/14 03:24:33;;;;;;;62.80;23.33;;;5.80;99.90;;;4.81;100.00;97128.84;4970728;28;20061;-72
2022/11/14 03:26:59;;;;;;;34.75;20.33;;;5.80;99.90;;;4.79;100.00;97122.91;4970932;28;20416;-72
2022/11/14 03:29:27;;;;;;;35.10;20.00;;;5.80;99.90;;;4.84;100.00;97125.34;4967995;28;20159;-72
2022/11/14 03:31:53;;;;;;;45.40;22.85;;;5.90;99.90;;;4.80;100.00;97129.72;4970113;28;20066;-70
2022/11/14 03:34:20;;;;;;;32.47;17.95;;;5.80;99.90;;;4.96;100.00;97117.28;4968928;28;20064;-72
2022/11/14 03:36:47;;;;;;;45.75;19.90;;;5.80;99.90;;;4.99;100.00;97106.06;4969996;28;20039;-72
2022/11/14 03:39:14;;;;;;;45.80;21.45;;;5.90;99.90;;;4.79;100.00;97116.94;4969883;28;20055;-72
2022/11/14 03:41:41;;;;;;;46.90;21.30;;;5.90;99.90;;;4.75;100.00;97107.59;4970427;28;20057;-73
2022/11/14 03:44:08;;;;;;;37.90;20.80;;;5.90;99.90;;;4.65;100.00;97106.97;4970430;28;20098;-72
2022/11/14 03:46:34;;;;;;;46.00;22.35;;;5.80;99.90;;;4.80;100.00;97093.72;4970761;28;20058;-72
2022/11/14 03:49:02;;;;;;;45.00;21.42;;;5.80;99.90;;;4.79;100.00;97097.19;4969041;28;20054;-71
2022/11/14 03:51:28;;;;;;;43.33;22.33;;;5.80;99.90;;;4.90;100.00;97106.31;4968478;28;20070;-72
2022/11/14 03:53:55;;;;;;;44.15;21.70;;;5.80;99.90;;;4.90;100.00;97088.31;4970529;28;20394;-72
2022/11/14 03:56:22;;;;;;;35.85;19.73;;;5.80;99.90;;;4.99;100.00;97100.94;4970826;28;20062;-71
2022/11/14 03:58:49;;;;;;;47.75;22.38;;;5.80;99.90;;;4.88;100.00;97097.81;4964282;28;20043;-72
2022/11/14 04:01:16;;;;;;;38.58;20.92;;;5.80;99.90;;;4.75;100.00;97103.28;4969092;28;20055;-71
2022/11/14 04:03:43;;;;;;;56.92;24.38;;;5.70;99.90;;;4.60;100.00;97106.25;4970538;28;20069;-73
2022/11/14 04:06:10;;;;;;;61.13;24.35;;;5.60;99.90;;;4.51;100.00;97094.50;4985177;28;20054;-71
2022/11/14 04:08:40;;;;;;;47.38;21.85;;;5.60;99.90;;;4.48;100.00;97098.88;4968650;28;20051;-72
2022/11/14 04:11:07;;;;;;;59.05;24.42;;;5.50;99.90;;;4.43;100.00;97099.00;4969046;28;20085;-72
2022/11/14 04:13:34;;;;;;;33.47;19.08;;;5.40;99.90;;;4.55;100.00;97100.41;4968663;28;20042;-72
2022/11/14 04:16:01;;;;;;;54.70;23.70;;;5.40;99.90;;;4.53;100.00;97100.44;4968750;28;20065;-71
2022/11/14 04:18:28;;;;;;;56.38;24.67;;;5.40;99.90;;;4.43;100.00;97100.75;4968914;28;20695;-72
2022/11/14 04:20:55;;;;;;;46.13;22.88;;;5.40;99.90;;;4.52;100.00;97103.91;4982470;28;20477;-71
2022/11/14 04:23:22;;;;;;;40.30;20.73;;;5.50;99.90;;;4.56;100.00;97109.78;4970433;28;20054;-72
2022/11/14 04:25:49;;;;;;;37.72;18.65;;;5.50;99.90;;;4.70;100.00;97107.72;4969627;28;20062;-71
2022/11/14 04:28:15;;;;;;;29.70;17.27;;;5.60;99.90;;;4.68;100.00;97101.78;4968906;28;20168;-71
2022/11/14 04:30:44;;;;;;;44.97;21.35;;;5.60;99.90;;;4.58;100.00;97102.88;4970440;28;20527;-72
2022/11/14 04:33:11;;;;;;;34.58;20.25;;;5.60;99.90;;;4.68;100.00;97103.50;4969878;28;20067;-72
2022/11/14 04:35:38;;;;;;;36.33;19.80;;;5.50;99.90;;;4.77;100.00;97101.53;4970129;28;20055;-72
2022/11/14 04:38:05;;;;;;;34.45;19.95;;;5.60;99.90;;;4.78;100.00;97089.50;4969120;28;20055;-71
2022/11/14 04:40:32;;;;;;;50.15;20.75;;;5.70;99.90;;;4.75;100.00;97094.75;4969980;28;20062;-72
2022/11/14 04:42:59;;;;;;;29.52;17.42;;;5.80;99.90;;;4.88;100.00;97084.94;4969926;28;20512;-71
2022/11/14 04:45:26;;;;;;;36.25;18.05;;;5.80;99.90;;;4.92;100.00;97083.97;4968452;28;20477;-72
2022/11/14 04:47:53;;;;;;;32.03;17.95;;;5.80;99.90;;;4.95;100.00;97083.88;4968005;28;20097;-73
2022/11/14 04:50:20;;;;;;;33.60;19.33;;;5.90;99.90;;;4.97;100.00;97082.13;4969754;28;20050;-72
2022/11/14 04:52:52;;;;;;;36.60;19.70;;;5.90;99.90;;;5.09;100.00;97084.34;4968545;28;20054;-72
2022/11/14 04:55:19;;;;;;;29.47;17.07;;;5.90;99.90;;;5.08;100.00;97076.69;4968457;28;20572;-72
2022/11/14 04:57:46;;;;;;;28.52;15.45;;;6.00;99.90;;;5.15;100.00;97076.44;4983013;28;20060;-71
2022/11/14 05:00:13;;;;;;;32.42;18.20;;;6.00;99.90;;;5.20;100.00;97084.91;4982912;28;20081;-72
2022/11/14 05:02:40;;;;;;;41.97;20.38;;;6.10;99.90;;;5.12;100.00;97091.16;4969298;28;20047;-72
2022/11/14 05:05:08;;;;;;;25.20;16.25;;;6.00;99.90;;;5.12;100.00;97089.41;4969057;28;20050;-72
2022/11/14 05:07:34;;;;;;;35.10;18.88;;;6.00;99.90;;;5.03;100.00;97080.22;4968877;28;20061;-71
2022/11/14 05:10:02;;;;;;;51.63;24.48;;;6.10;99.90;;;4.85;100.00;97070.44;4983219;28;20154;-70
2022/11/14 05:12:29;;;;;;;45.65;22.50;;;6.00;99.90;;;4.74;100.00;97075.03;4969907;28;20077;-72
2022/11/14 05:14:56;;;;;;;52.47;26.73;;;6.00;99.90;;;4.71;100.00;97064.84;4968365;28;20428;-71
2022/11/14 05:17:23;;;;;;;59.00;27.33;;;5.90;99.90;;;4.54;100.00;97066.16;4969506;28;20142;-72
2022/11/14 05:19:50;;;;;;;58.53;26.55;;;5.90;99.90;;;4.50;100.00;97069.69;4967823;28;20521;-70
2022/11/14 05:22:17;;;;;;;38.17;22.08;;;5.90;99.90;;;4.64;100.00;97060.78;4969279;28;20512;-72
2022/11/14 05:24:44;;;;;;;55.17;26.17;;;5.80;99.90;;;4.57;100.00;97063.50;4967275;28;20058;-71
2022/11/14 05:27:11;;;;;;;49.63;25.63;;;5.80;99.90;;;4.49;100.00;97057.72;4965538;28;20505;-72
2022/11/14 05:29:37;;;;;;;69.03;27.85;;;5.80;99.90;;;4.62;100.00;97055.66;4966033;28;20043;-72
2022/11/14 05:32:04;;;;;;;43.92;23.17;;;5.80;99.90;;;4.65;100.00;97047.03;4969184;28;20061;-72
2022/11/14 05:34:31;;;;;;;52.75;25.85;;;5.80;99.90;;;4.63;100.00;97048.78;4981569;28;20043;-71
2022/11/14 05:36:58;;;;;;;67.90;28.10;;;5.80;99.90;;;4.56;100.00;97060.97;4966850;28;20071;-71
2022/11/14 05:39:25;;;;;;;61.25;26.95;;;5.80;99.90;;;4.76;100.00;97053.53;4968450;28;20405;-72
2022/11/14 05:41:52;;;;;;;52.42;24.95;;;5.80;99.90;;;4.77;100.00;97057.81;4967935;28;20064;-72
2022/11/14 05:44:19;;;;;;;42.28;23.17;;;5.80;99.90;;;4.86;100.00;97046.44;4967581;28;20059;-71
2022/11/14 05:46:45;;;;;;;65.30;28.80;;;5.80;99.90;;;4.73;100.00;97052.81;4981421;28;20051;-72
2022/11/14 05:49:12;;;;;;;67.90;29.08;;;5.80;99.90;;;4.74;100.00;97047.59;4982534;28;20062;-71
2022/11/14 05:51:46;;;;;;;64.90;27.55;;;5.90;99.90;;;4.73;100.00;97043.34;4966777;28;20058;-70
2022/11/14 05:54:13;;;;;;;71.78;30.45;;;5.90;99.90;;;4.71;100.00;97042.56;4968147;28;20057;-71
2022/11/14 05:56:40;;;;;;;63.10;28.88;;;5.90;99.90;;;4.81;100.00;97038.84;4967557;28;20074;-72
2022/11/14 05:59:06;;;;;;;59.38;27.60;;;5.90;99.90;;;4.79;100.00;97040.63;4965914;28;20050;-70
2022/11/14 06:01:33;;;;;;;62.75;28.35;;;6.00;99.90;;;4.84;100.00;97037.09;4971585;28;20429;-72
2022/11/14 06:04:00;;;;;;;54.00;27.45;;;6.00;99.90;;;4.90;100.00;97030.00;4966863;28;20051;-72
2022/11/14 06:06:27;;;;;;;44.92;25.08;;;6.10;99.90;;;5.13;100.00;97028.50;4983060;28;20062;-72
2022/11/14 06:08:54;;;;;;;59.10;28.30;;;6.10;99.90;;;4.93;100.00;97029.09;4967670;28;20051;-71
2022/11/14 06:11:21;;;;;;;61.88;28.30;;;6.10;99.90;;;4.95;100.00;97027.31;4966872;28;20047;-70
2022/11/14 06:13:48;;;;;;;48.83;25.30;;;6.10;99.90;;;5.11;100.00;97031.13;4979302;28;20046;-71
2022/11/14 06:16:17;;;;;;;49.35;23.52;;;6.20;99.90;;;5.14;100.00;97031.03;4967591;28;20526;-72
2022/11/14 06:18:45;;;;;;;44.38;21.45;;;6.20;99.90;;;5.15;100.00;97031.88;4967635;28;20059;-71
2022/11/14 06:21:18;;;;;;;28.25;16.05;;;6.20;99.90;;;5.36;100.00;97038.97;4967247;28;20523;-71
2022/11/14 06:23:45;;;;;;;39.22;16.90;;;6.20;99.90;;;5.43;100.00;97044.78;4966311;28;20508;-72
2022/11/14 06:26:29;;;;;;;36.35;18.67;;;6.20;99.90;;;5.43;100.00;97047.34;4965394;28;20093;-71
2022/11/14 06:28:56;;;;;;;;;;;6.30;99.90;;;5.21;100.00;97039.41;4964834;28;20058;-72
2022/11/14 06:31:24;;;;;;;28.48;16.17;;;6.30;99.90;;;5.27;100.00;97052.09;4967216;28;20568;-71
2022/11/14 06:33:52;;;;;;;29.92;17.25;;;6.30;99.90;;;5.36;100.00;97045.81;4982603;28;20047;-71
2022/11/14 06:36:19;;;;;;;35.08;17.30;;;6.30;99.90;;;5.39;100.00;97035.44;4968524;28;20132;-72
2022/11/14 06:38:46;;;;;;;41.78;20.05;;;6.30;99.90;;;5.32;100.00;97028.81;4967476;28;20092;-71
2022/11/14 06:41:18;;;;;;;52.50;21.67;;;6.30;99.90;;;5.18;100.00;97019.78;4968371;28;20066;-72
2022/11/14 06:43:48;;;;;;;40.83;21.70;;;6.10;99.90;;;5.16;100.00;97026.69;4980618;28;20497;-71
2022/11/14 06:46:20;;;;;;;37.85;18.70;;;6.10;99.90;;;5.15;100.00;97022.41;4968360;28;20054;-72
2022/11/14 06:48:48;;;;;;;37.97;18.98;;;6.10;99.90;;;5.13;100.00;97021.66;4967185;28;20051;-72
2022/11/14 06:51:16;;;;;;;25.70;16.45;;;6.10;99.90;;;5.19;100.00;97006.00;4967926;28;20046;-71
2022/11/14 06:53:44;;;;;;;30.35;16.35;;;6.10;99.90;;;5.30;100.00;96997.97;4967690;28;20055;-72
2022/11/14 06:56:19;;;;;;;41.28;21.00;;;6.20;99.90;;;5.19;100.00;96998.28;4967998;28;20070;-71
2022/11/14 06:58:48;;;;;;;42.35;21.40;;;6.10;99.90;;;5.18;100.00;97000.94;4967653;28;20051;-71
2022/11/14 07:01:24;;;;;;;51.17;21.50;;;6.10;99.90;;;5.16;100.00;97007.84;4967263;28;20054;-72
2022/11/14 07:03:51;;;;;;;34.67;19.38;;;6.10;99.90;;;5.17;100.00;97015.50;4966585;28;20051;-72
2022/11/14 07:06:22;;;;;;;33.15;17.52;;;6.10;99.90;;;5.23;100.00;97011.91;4968159;28;20050;-71
2022/11/14 07:08:50;;;;;;;27.20;15.95;;;6.20;99.90;;;5.37;100.00;97007.19;4964753;28;20054;-71
2022/11/14 07:11:25;;;;;;;25.60;14.60;;;6.30;99.90;;;5.44;100.00;97018.97;4964039;28;20062;-71
2022/11/14 07:13:56;;;;;;;24.63;14.95;;;6.40;99.90;;;5.59;100.00;97019.41;4966243;28;20497;-70
2022/11/14 07:16:28;;;;;;;26.48;15.38;;;6.50;99.90;;;5.56;100.00;97016.91;4967496;28;20057;-72
2022/11/14 07:18:57;;;;;;;;;;;6.60;99.90;;;5.64;100.00;97018.34;4978539;28;20905;-72
2022/11/14 07:21:26;;;;;;;30.42;16.50;;;6.70;99.90;;;5.70;100.00;97013.88;4983315;28;19953;-71
2022/11/14 07:23:53;;;;;;;40.75;21.70;;;6.70;99.90;;;5.80;100.00;97026.41;4966284;28;20058;-72
2022/11/14 07:26:20;;;;;;;38.40;20.52;;;6.70;99.90;;;5.81;100.00;97028.09;4976119;28;20420;-71
2022/11/14 07:28:48;;;;;;;38.83;21.65;;;6.80;99.90;;;5.74;100.00;97042.06;4961970;28;21998;-72
2022/11/14 07:31:20;;;;;;;31.83;18.45;;;6.70;99.90;;;5.66;100.00;97039.75;4978590;28;20054;-72
2022/11/14 07:33:47;;;;;;;35.58;19.73;;;6.70;99.90;;;5.76;100.00;97035.13;4962637;28;20051;-72
2022/11/14 07:36:16;;;;;;;28.90;18.98;;;6.70;99.90;;;5.80;100.00;97041.03;4961692;28;20073;-71
2022/11/14 07:38:43;;;;;;;35.53;21.98;;;6.80;99.90;;;5.59;100.00;97027.13;4973332;28;20050;-70
2022/11/14 07:41:15;;;;;;;41.90;25.67;;;6.80;99.90;;;5.58;100.00;97030.56;4960854;28;20055;-70
2022/11/14 07:43:43;;;;;;;42.53;25.47;;;6.70;99.90;;;5.51;100.00;97029.06;4961511;28;20140;-72
2022/11/14 07:46:13;;;;;;;42.05;24.77;;;6.70;99.90;;;5.39;100.00;97036.28;4961497;28;20312;-72
2022/11/14 07:48:40;;;;;;;40.50;24.52;;;6.70;99.90;;;5.60;100.00;97033.94;4963074;28;20517;-71
2022/11/14 07:51:14;;;;;;;45.35;26.25;;;6.60;99.90;;;5.35;100.00;97026.97;4960894;28;20074;-71
2022/11/14 07:53:41;;;;;;;45.20;25.98;;;6.60;99.90;;;5.33;100.00;97040.78;4979256;28;20050;-71
2022/11/14 07:56:09;;;;;;;38.25;23.80;;;6.70;99.90;;;5.49;100.00;97048.88;4979264;28;20069;-72
2022/11/14 07:58:37;;;;;;;35.10;23.20;;;6.70;99.90;;;5.43;100.00;97035.31;4968442;28;20058;-71
2022/11/14 08:01:06;;;;;;;44.33;23.30;;;6.70;99.90;;;5.45;100.00;97033.53;4968463;28;20150;-69
2022/11/14 08:03:34;;;;;;;40.83;25.13;;;6.70;99.90;;;5.28;100.00;97040.91;4964526;28;20053;-71
2022/11/14 08:06:08;;;;;;;38.33;22.60;;;6.80;99.90;;;5.41;100.00;97044.81;4966153;28;20444;-71
2022/11/14 08:08:35;;;;;;;33.28;20.65;;;6.70;99.90;;;5.63;100.00;97047.56;4960426;28;20054;-70
2022/11/14 08:11:02;;;;;;;28.25;19.15;;;6.80;99.90;;;5.73;100.00;97057.56;4967017;28;20047;-72
2022/11/14 08:13:30;;;;;;;33.03;20.35;;;6.80;99.90;;;5.40;100.00;97060.28;4966239;28;20459;-71
2022/11/14 08:16:07;;;;;;;32.83;20.27;;;6.70;99.90;;;5.62;100.00;97052.75;4980994;28;20055;-71
2022/11/14 08:18:40;;;;;;;37.35;22.35;;;6.70;99.90;;;5.58;100.00;97062.28;4967304;28;20504;-70
2022/11/14 08:21:07;;;;;;;32.45;20.05;;;6.70;99.90;;;5.59;100.00;97066.56;4966313;28;20057;-72
2022/11/14 08:23:34;;;;;;;32.15;20.38;;;6.70;99.90;;;5.62;100.00;97073.34;4966564;28;20777;-72
2022/11/14 08:26:01;;;;;;;31.77;19.65;;;6.70;99.90;;;5.82;100.00;97062.44;4966570;28;20064;-72
2022/11/14 08:28:28;;;;;;;30.73;19.85;;;6.70;99.90;;;5.81;100.00;97061.56;4967187;28;20047;-72
2022/11/14 08:31:01;;;;;;;40.40;24.65;;;6.70;99.90;;;5.63;100.00;97057.00;4966478;28;20532;-71
2022/11/14 08:33:29;;;;;;;45.83;25.60;;;6.70;99.90;;;5.49;100.00;97060.00;4965519;28;20081;-71
2022/11/14 08:36:05;;;;;;;34.70;20.42;;;6.80;99.90;;;5.44;100.00;97051.59;4964697;28;20062;-72
2022/11/14 08:38:33;;;;;;;30.83;20.67;;;6.80;99.90;;;5.48;100.00;97049.78;4976801;28;20046;-72
2022/11/14 08:41:01;;;;;;;32.42;20.73;;;6.70;99.90;;;5.49;100.00;97056.59;4965693;28;20053;-71
2022/11/14 08:43:30;;;;;;;35.63;22.00;;;6.80;99.90;;;5.45;100.00;97053.25;4966154;28;20994;-71
2022/11/14 08:46:03;;;;;;;30.88;19.02;;;6.80;99.90;;;5.63;100.00;97051.84;4980266;28;20050;-72
2022/11/14 08:48:31;;;;;;;32.45;20.83;;;6.80;99.90;;;5.58;100.00;97058.88;4977151;28;20385;-71
2022/11/14 08:51:05;;;;;;;29.75;19.65;;;6.80;99.90;;;5.58;100.00;97049.41;4964566;28;20058;-72
2022/11/14 08:53:33;;;;;;;24.33;17.27;;;6.80;99.90;;;5.71;100.00;97051.63;4963136;28;20047;-72
2022/11/14 08:56:00;;;;;;;25.55;17.25;;;6.80;99.90;;;5.81;100.00;97056.41;4964413;28;20564;-72
2022/11/14 08:58:29;;;;;;;23.65;15.57;;;6.80;99.90;;;5.86;100.00;97056.28;4948473;28;20066;-71
2022/11/14 09:01:03;;;;;;;22.25;15.50;;;6.80;99.90;;;5.71;100.00;97056.78;4962725;28;20054;-71
2022/11/14 09:03:30;;;;;;;27.35;17.80;;;6.70;99.90;;;5.64;100.00;97061.28;4963440;28;20047;-72
2022/11/14 09:05:57;;;;;;;24.27;15.77;;;6.70;99.90;;;5.81;100.00;97060.72;4964655;28;20424;-71
2022/11/14 09:08:24;;;;;;;24.63;15.65;;;6.70;99.90;;;5.88;100.00;97059.63;4969784;28;20047;-72
2022/11/14 09:10:51;;;;;;;22.83;15.10;;;6.80;99.90;;;6.06;100.00;97050.50;4964751;28;20178;-72
2022/11/14 09:13:19;;;;;;;22.67;15.43;;;6.90;99.90;;;5.97;100.00;97053.38;4963458;28;20054;-71
2022/11/14 09:15:45;;;;;;;21.15;14.95;;;6.90;99.90;;;6.21;100.00;97047.44;4965385;28;20058;-71
2022/11/14 09:18:14;;;;;;;25.65;15.25;;;7.00;99.90;;;6.16;100.00;97039.03;4964970;28;20413;-71
2022/11/14 09:20:41;;;;;;;21.33;14.98;;;7.00;99.90;;;6.19;100.00;97038.91;4965107;28;20077;-71
2022/11/14 09:23:09;;;;;;;22.30;14.40;;;7.20;99.90;;;6.44;100.00;97041.47;4963274;28;20055;-71
2022/11/14 09:25:36;;;;;;;21.55;14.88;;;7.30;99.90;;;6.44;100.00;97038.91;4961217;28;20051;-72
2022/11/14 09:28:06;;;;;;;21.02;15.38;;;7.40;99.90;;;6.17;100.00;97038.13;4965372;28;20563;-72
2022/11/14 09:30:34;;;;;;;22.52;15.48;;;7.40;99.90;;;6.26;100.00;97044.69;4964189;28;20050;-71
2022/11/14 09:33:03;;;;;;;19.85;14.43;;;7.40;99.90;;;6.44;100.00;97040.66;4963379;28;20058;-71
2022/11/14 09:35:37;;;;;;;22.30;15.65;;;7.50;99.90;;;6.47;100.00;97043.09;4960478;28;20444;-71
2022/11/14 09:38:10;;;;;;;18.80;13.93;;;7.50;99.90;;;6.53;100.00;97042.06;4962530;28;20050;-71
2022/11/14 09:40:46;;;;;;;;;;;7.50;99.90;;;6.38;100.00;97046.00;4963271;28;20501;-71
2022/11/14 09:43:37;;;;;;;17.85;12.32;;;7.50;99.90;;;6.61;100.00;97045.22;4963774;28;19926;-71
2022/11/14 09:46:21;;;;;;;15.57;11.75;;;7.60;99.90;;;6.66;100.00;97035.56;4942685;28;20058;-71
2022/11/14 09:48:50;;;;;;;16.73;11.98;;;7.60;99.90;;;6.65;100.00;97036.47;4964201;28;20058;-71
2022/11/14 09:51:22;;;;;;;19.10;12.85;;;7.70;99.90;;;6.66;100.00;97041.59;4978564;28;20099;-71
2022/11/14 09:54:16;;;;;;;30.27;14.97;;;7.70;99.90;;;6.64;100.00;97045.94;4962806;28;20425;-70
2022/11/14 09:56:42;;;;;;;48.28;15.95;;;7.70;99.90;;;6.72;100.00;97050.81;4976137;28;20054;-71
2022/11/14 09:59:14;;;;;;;31.67;14.07;;;7.70;99.90;;;6.91;100.00;97054.44;4962677;28;20470;-70
2022/11/14 10:02:25;;;;;;;22.60;14.07;;;7.80;99.90;;;6.59;100.00;97059.88;4963341;28;20050;-70
2022/11/14 10:05:21;;;;;;;21.58;14.50;;;7.80;99.90;;;6.24;100.00;97057.63;4961179;28;20053;-68
2022/11/14 10:07:53;;;;;;;19.25;13.73;;;7.70;99.90;;;6.34;100.00;97052.16;4960851;28;20145;-70
2022/11/14 10:10:54;;;;;;;19.10;13.48;;;7.60;99.90;;;6.38;100.00;97058.91;4947406;28;20055;-70
2022/11/14 10:13:51;;;;;;;18.45;12.75;;;7.50;99.90;;;6.53;100.00;97042.06;4957991;28;20057;-70
2022/11/14 10:16:36;;;;;;;21.33;14.48;;;7.50;99.90;;;6.70;100.00;97040.59;4962573;28;20453;-71
2022/11/14 10:19:29;;;;;;;18.67;13.57;;;7.70;99.90;;;6.69;100.00;97038.06;4960142;28;20404;-71
2022/11/14 10:22:17;;;;;;;24.63;16.30;;;7.80;99.90;;;6.44;100.00;97040.66;4958739;28;20062;-71